Linhe, China
Current Conditions -  °F | °C
As of 4:00 PM on Saturday 20 Dec 2014 (Local Time) from ZBHH Reporting Station
Scattered Clouds Scattered Clouds  
Wind Chill:   Ceiling: Unl
Heat Index: 18°   Visibility: 6mi
Dew Point:   Wind: 11mph
Humidity: 49%   Direction: 330°NNW
Pressure: 30.3"   Gusts: NA
Location:  40.83°N, 107.5°E
Report Text: ZBHH 200800Z 33005MPS 290V360 9999 SCT040 M08/M17 Q1026 NOSIG
Loading
Personal Weather Stations






























Interactive Weather Map New forecast layout! Learn more

10-Day Weather Forecast

Advertisements
Track Severe Weather on mobile